Time;durP1;ratioP1;P1;durP2;ratioP2;P2;SDS_P1;SDS_P2;PMS_P1;PMS_P2;Temp;Humidity;BMP_temperature;BMP_pressure;BME280_temperature;BME280_humidity;BME280_pressure;Samples;Min_cycle;Max_cycle;Signal;HPM_P1;HPM_P2
2023/10/13 00:01:15;;;;;;;14.57;3.53;;;20.50;53.00;;;;;;6215971;28;20116;-65
2023/10/13 00:04:15;;;;;;;12.02;3.28;;;20.50;53.00;;;;;;6215784;28;20030;-65
2023/10/13 00:07:16;;;;;;;8.10;2.55;;;20.50;53.10;;;;;;6214113;28;20426;-64
2023/10/13 00:10:18;;;;;;;8.75;3.28;;;20.50;53.20;;;;;;6215013;28;20061;-65
2023/10/13 00:13:20;;;;;;;8.10;3.22;;;20.50;53.20;;;;;;6191846;28;20479;-66
2023/10/13 00:16:22;;;;;;;5.47;2.50;;;20.50;53.20;;;;;;6190218;28;20057;-67
2023/10/13 00:19:24;;;;;;;7.18;2.58;;;20.50;52.90;;;;;;6195395;28;20022;-65
2023/10/13 00:22:27;;;;;;;9.05;3.00;;;20.60;52.80;;;;;;6213723;28;20116;-64
2023/10/13 00:25:28;;;;;;;6.38;2.42;;;20.60;52.60;;;;;;6215542;28;20060;-65
2023/10/13 00:28:35;;;;;;;11.80;2.97;;;20.60;52.20;;;;;;6213908;28;20100;-65
2023/10/13 00:31:43;;;;;;;10.88;3.17;;;20.60;52.00;;;;;;6206956;28;20027;-69
2023/10/13 00:34:43;;;;;;;15.23;3.15;;;20.50;51.50;;;;;;6191022;28;20113;-66
2023/10/13 00:37:44;;;;;;;6.97;2.92;;;20.60;51.40;;;;;;6191185;28;20032;-64
2023/10/13 00:40:52;;;;;;;7.70;2.75;;;20.60;51.20;;;;;;6206163;28;20029;-65
2023/10/13 00:44:05;;;;;;;4.80;3.00;;;20.50;51.20;;;;;;6182277;28;20601;-66
2023/10/13 00:47:09;;;;;;;5.50;2.80;;;20.50;51.50;;;;;;6215235;28;20034;-65
2023/10/13 00:50:14;;;;;;;6.50;2.80;;;20.50;51.90;;;;;;6213089;28;20132;-66
2023/10/13 00:53:15;;;;;;;8.05;3.17;;;20.50;52.10;;;;;;6215361;28;20034;-67
2023/10/13 00:56:21;;;;;;;7.03;3.45;;;20.70;52.20;;;;;;6197455;28;20433;-66
2023/10/13 00:59:25;;;;;;;5.93;2.75;;;20.40;52.20;;;;;;6213140;28;20059;-65
2023/10/13 01:02:37;;;;;;;7.18;3.67;;;20.50;52.60;;;;;;6190714;28;20042;-65
2023/10/13 01:05:40;;;;;;;11.43;2.88;;;20.50;52.60;;;;;;6190561;28;20108;-64
2023/10/13 01:08:44;;;;;;;11.95;3.25;;;20.40;52.40;;;;;;6190373;28;20164;-64
2023/10/13 01:11:52;;;;;;;11.18;3.65;;;20.40;52.90;;;;;;6202555;28;20034;-65
2023/10/13 01:14:53;;;;;;;10.73;3.00;;;20.40;53.00;;;;;;6213259;28;20623;-65
2023/10/13 01:17:56;;;;;;;7.88;2.88;;;20.40;53.00;;;;;;6213275;28;20065;-65
2023/10/13 01:20:59;;;;;;;10.23;2.42;;;20.40;53.00;;;;;;6214128;28;20467;-65
2023/10/13 01:24:00;;;;;;;6.15;2.67;;;20.40;52.30;;;;;;6214542;28;20033;-65
2023/10/13 01:27:17;;;;;;;11.10;2.80;;;20.30;52.00;;;;;;6214127;28;20061;-65
2023/10/13 01:30:26;;;;;;;8.80;2.80;;;20.30;52.20;;;;;;6214428;28;20034;-66
2023/10/13 01:33:27;;;;;;;;;;;20.20;52.70;;;;;;6213629;28;20550;-64
2023/10/13 01:36:28;;;;;;;10.85;2.75;;;20.20;53.10;;;;;;6214754;28;19917;-65
2023/10/13 01:39:29;;;;;;;5.65;2.70;;;20.10;53.40;;;;;;6214487;28;20085;-64
2023/10/13 01:42:30;;;;;;;7.10;2.38;;;20.00;53.90;;;;;;6214167;28;20037;-65
2023/10/13 01:45:31;;;;;;;7.90;2.45;;;19.90;54.30;;;;;;6217547;28;20538;-65
2023/10/13 01:48:32;;;;;;;10.95;2.75;;;19.80;54.70;;;;;;6220508;28;20061;-64
2023/10/13 01:51:33;;;;;;;6.78;3.00;;;19.70;55.10;;;;;;6220785;28;20104;-65
2023/10/13 01:54:34;;;;;;;10.07;3.25;;;19.60;55.50;;;;;;6220454;28;20076;-66
2023/10/13 01:57:35;;;;;;;13.98;2.92;;;19.50;55.70;;;;;;6218254;28;20662;-66
2023/10/13 02:00:41;;;;;;;6.72;3.05;;;19.40;56.20;;;;;;6205747;28;20042;-64
2023/10/13 02:03:48;;;;;;;7.10;3.38;;;19.40;56.50;;;;;;6217674;28;20033;-64
2023/10/13 02:06:49;;;;;;;8.85;3.55;;;18.70;56.40;;;;;;6218020;28;20084;-65
2023/10/13 02:09:49;;;;;;;11.80;3.22;;;19.30;56.90;;;;;;6218852;28;20504;-65
2023/10/13 02:12:55;;;;;;;7.90;2.63;;;19.20;56.90;;;;;;6217236;28;20340;-65
2023/10/13 02:15:57;;;;;;;9.98;3.25;;;19.20;56.90;;;;;;6217139;28;20458;-66
2023/10/13 02:19:03;;;;;;;8.75;3.20;;;19.20;56.90;;;;;;6200539;28;20029;-66
2023/10/13 02:22:04;;;;;;;7.35;2.63;;;19.20;57.50;;;;;;6200644;28;20037;-68
2023/10/13 02:25:06;;;;;;;7.63;2.72;;;19.10;56.80;;;;;;6202313;28;20030;-65
2023/10/13 02:28:13;;;;;;;5.43;2.60;;;19.20;56.60;;;;;;6192433;28;20104;-66
2023/10/13 02:31:14;;;;;;;7.97;3.10;;;19.10;56.40;;;;;;6194156;28;20044;-66
2023/10/13 02:34:14;;;;;;;7.43;2.63;;;19.10;56.20;;;;;;6194625;28;20034;-66
2023/10/13 02:37:18;;;;;;;8.73;2.88;;;19.20;56.30;;;;;;6194007;28;20061;-65
2023/10/13 02:40:23;;;;;;;6.40;2.47;;;19.10;56.10;;;;;;6193979;28;20359;-65
2023/10/13 02:43:23;;;;;;;14.88;2.55;;;19.10;56.00;;;;;;6205817;28;20052;-64
2023/10/13 02:46:29;;;;;;;6.85;2.63;;;19.00;55.90;;;;;;6218052;28;20030;-65
2023/10/13 02:49:33;;;;;;;12.95;3.15;;;19.00;55.80;;;;;;6216273;28;20030;-65
2023/10/13 02:52:38;;;;;;;8.10;2.28;;;19.10;55.80;;;;;;6217839;28;20570;-65
2023/10/13 02:55:52;;;;;;;5.13;2.33;;;19.00;55.80;;;;;;6216252;28;20038;-64
2023/10/13 02:58:56;;;;;;;4.35;2.55;;;19.00;55.80;;;;;;6217694;28;20187;-66
2023/10/13 03:01:57;;;;;;;12.18;2.80;;;19.00;55.70;;;;;;6217982;28;20470;-65
2023/10/13 03:04:59;;;;;;;3.80;2.17;;;19.00;55.70;;;;;;6215966;28;20037;-64
2023/10/13 03:08:04;;;;;;;8.25;3.63;;;19.00;55.70;;;;;;6216005;28;20242;-66
2023/10/13 03:11:05;;;;;;;10.77;3.00;;;19.00;55.70;;;;;;6215849;28;20044;-65
2023/10/13 03:14:07;;;;;;;13.95;3.55;;;19.00;55.60;;;;;;6217478;28;20137;-65
2023/10/13 03:17:14;;;;;;;8.52;2.83;;;19.00;55.60;;;;;;6217503;28;20124;-66
2023/10/13 03:20:22;;;;;;;5.80;2.80;;;19.00;55.60;;;;;;6215638;28;20547;-65
2023/10/13 03:23:25;;;;;;;8.48;2.92;;;19.10;55.60;;;;;;6217693;28;20139;-65
2023/10/13 03:26:27;;;;;;;7.97;2.60;;;19.00;55.60;;;;;;6217510;28;20308;-66
2023/10/13 03:29:30;;;;;;;4.70;2.50;;;19.10;55.60;;;;;;6216976;28;20120;-64
2023/10/13 03:32:33;;;;;;;5.50;2.70;;;19.10;55.70;;;;;;6215850;28;20060;-66
2023/10/13 03:35:38;;;;;;;8.75;2.80;;;19.30;55.70;;;;;;6215576;28;20141;-67
2023/10/13 03:38:39;;;;;;;13.60;2.75;;;19.10;55.70;;;;;;6194378;28;20038;-66
2023/10/13 03:41:40;;;;;;;5.90;2.97;;;19.10;55.60;;;;;;6192800;28;20088;-67
2023/10/13 03:44:45;;;;;;;9.35;3.03;;;19.10;55.60;;;;;;6192519;28;20041;-65
2023/10/13 03:47:46;;;;;;;12.48;2.85;;;19.10;55.60;;;;;;6192668;28;20100;-66
2023/10/13 03:50:57;;;;;;;5.13;2.85;;;19.10;55.70;;;;;;6213876;28;20037;-66
2023/10/13 03:53:58;;;;;;;8.70;3.15;;;19.10;55.80;;;;;;6216719;28;20033;-65
2023/10/13 03:57:04;;;;;;;8.18;2.78;;;19.10;55.90;;;;;;6216763;28;20026;-65
2023/10/13 04:00:09;;;;;;;9.77;3.10;;;18.90;55.80;;;;;;6216221;28;20103;-65
2023/10/13 04:03:16;;;;;;;4.47;2.67;;;19.00;55.90;;;;;;6215069;28;20545;-65
2023/10/13 04:06:18;;;;;;;6.90;2.85;;;19.10;55.80;;;;;;6216020;28;20108;-65
2023/10/13 04:19:09;;;;;;;8.57;3.30;;;19.10;56.50;;;;;;6212385;28;20033;-66
2023/10/13 04:22:20;;;;;;;14.23;3.40;;;19.00;55.90;;;;;;6210184;28;20045;-66
2023/10/13 04:25:38;;;;;;;6.35;2.80;;;19.00;56.00;;;;;;6213930;28;20030;-65
2023/10/13 04:28:50;;;;;;;7.60;2.80;;;19.00;56.20;;;;;;6213686;28;20466;-66
2023/10/13 04:32:00;;;;;;;11.70;3.05;;;18.90;56.20;;;;;;6214079;28;20042;-66
2023/10/13 04:38:19;;;;;;;12.73;3.33;;;18.90;56.50;;;;;;6215704;28;20107;-65
2023/10/13 04:41:23;;;;;;;7.72;2.70;;;18.80;56.00;;;;;;6214317;28;20057;-65
2023/10/13 04:47:57;;;;;;;12.07;3.78;;;18.80;56.50;;;;;;6215292;28;20026;-65
2023/10/13 04:54:33;;;;;;;7.80;3.08;;;18.80;56.70;;;;;;6210092;28;20044;-68
2023/10/13 05:47:46;;;;;;;21.75;3.00;;;18.60;56.10;;;;;;6214649;28;20044;-65
2023/10/13 05:50:49;;;;;;;4.90;2.20;;;18.60;56.10;;;;;;6214577;28;20061;-65
2023/10/13 06:30:57;;;;;;;15.93;3.78;;;18.50;55.80;;;;;;6209555;28;20053;-66
2023/10/13 06:33:58;;;;;;;10.10;3.35;;;18.50;56.00;;;;;;6218297;28;20056;-66
2023/10/13 06:36:59;;;;;;;11.68;3.50;;;18.50;56.10;;;;;;6217837;28;20026;-66
2023/10/13 06:40:22;;;;;;;8.55;3.15;;;18.40;56.20;;;;;;6217846;28;20025;-65
2023/10/13 06:43:23;;;;;;;7.80;3.15;;;18.50;56.20;;;;;;6217923;28;20347;-65
2023/10/13 06:46:24;;;;;;;23.15;4.30;;;18.50;56.20;;;;;;6218086;28;20034;-65
2023/10/13 06:49:26;;;;;;;10.65;3.65;;;18.50;56.30;;;;;;6216423;28;20084;-64
2023/10/13 06:52:29;;;;;;;14.25;4.15;;;18.50;56.50;;;;;;6218252;28;20494;-67
2023/10/13 06:55:35;;;;;;;5.60;3.30;;;18.50;56.70;;;;;;6216497;28;20037;-67
2023/10/13 06:58:36;;;;;;;9.65;3.30;;;18.50;56.80;;;;;;6216211;28;20026;-65
2023/10/13 07:01:40;;;;;;;8.02;3.38;;;18.50;56.80;;;;;;6218343;28;20404;-66
2023/10/13 07:04:41;;;;;;;20.13;3.75;;;18.60;56.70;;;;;;6218034;28;20191;-64
2023/10/13 07:07:44;;;;;;;11.43;3.33;;;18.60;56.70;;;;;;6218355;28;20115;-65
2023/10/13 07:10:52;;;;;;;10.27;4.00;;;18.70;56.60;;;;;;6217002;28;20098;-65
2023/10/13 07:13:53;;;;;;;13.07;3.95;;;18.70;56.60;;;;;;6217952;28;20085;-65
2023/10/13 07:17:06;;;;;;;11.20;3.22;;;18.80;56.60;;;;;;6217830;28;20053;-65
2023/10/13 07:20:23;;;;;;;11.48;3.03;;;18.80;56.50;;;;;;6217410;28;20053;-65
2023/10/13 07:23:24;;;;;;;7.32;3.00;;;18.90;56.40;;;;;;6214014;28;20046;-67
2023/10/13 07:26:29;;;;;;;11.50;3.13;;;18.90;56.20;;;;;;6193034;28;20137;-65
2023/10/13 07:29:33;;;;;;;13.70;3.10;;;19.00;56.10;;;;;;6192901;28;20092;-65
2023/10/13 07:32:34;;;;;;;12.95;3.35;;;19.10;56.00;;;;;;6193226;28;20038;-65
2023/10/13 07:35:37;;;;;;;10.65;3.60;;;19.10;56.00;;;;;;6191318;28;20126;-65
2023/10/13 07:38:38;;;;;;;9.85;3.55;;;19.20;56.00;;;;;;6192534;28;20034;-64
2023/10/13 07:41:41;;;;;;;14.32;3.67;;;19.20;55.90;;;;;;6191437;28;20036;-65
2023/10/13 07:44:48;;;;;;;21.17;3.97;;;19.30;55.80;;;;;;6190853;28;20394;-65
2023/10/13 07:47:49;;;;;;;18.38;4.47;;;19.40;55.80;;;;;;6192099;28;20050;-66
2023/10/13 07:51:03;;;;;;;16.83;4.57;;;19.50;55.70;;;;;;6214084;28;20108;-67
2023/10/13 07:54:08;;;;;;;17.00;3.95;;;19.50;55.40;;;;;;6216418;28;20497;-65
2023/10/13 07:57:09;;;;;;;14.00;4.05;;;19.60;55.30;;;;;;6216402;28;20038;-65
2023/10/13 08:00:25;;;;;;;9.90;3.58;;;20.30;55.40;;;;;;6216400;28;20057;-65
2023/10/13 08:03:37;;;;;;;14.75;4.70;;;19.70;55.10;;;;;;6216329;28;20052;-67
2023/10/13 08:06:40;;;;;;;19.05;4.57;;;19.80;55.00;;;;;;6216021;28;20034;-66
2023/10/13 08:09:41;;;;;;;18.10;4.57;;;19.90;54.70;;;;;;6216260;28;20037;-66
2023/10/13 08:12:44;;;;;;;18.80;3.90;;;20.00;54.40;;;;;;6214996;28;20033;-68
2023/10/13 08:15:47;;;;;;;22.20;3.92;;;20.10;54.30;;;;;;6198605;28;20087;-70
2023/10/13 08:18:52;;;;;;;14.38;4.47;;;20.30;54.10;;;;;;6216219;28;20092;-66
2023/10/13 08:21:59;;;;;;;12.10;3.53;;;20.40;53.80;;;;;;6215104;28;20029;-66
2023/10/13 08:25:20;;;;;;;19.17;4.47;;;20.50;53.30;;;;;;6214708;28;20060;-64
2023/10/13 08:31:41;;;;;;;8.65;4.05;;;20.80;52.80;;;;;;6215126;28;20041;-66
2023/10/13 08:44:31;;;;;;;9.30;4.63;;;21.20;51.00;;;;;;6216147;28;20037;-65
2023/10/13 08:47:36;;;;;;;14.93;5.45;;;21.30;50.80;;;;;;6216198;28;20113;-65
2023/10/13 08:53:58;;;;;;;9.05;3.33;;;21.60;50.30;;;;;;6214032;28;20018;-64
2023/10/13 08:57:19;;;;;;;20.45;3.33;;;21.70;50.00;;;;;;6215121;28;20642;-67
2023/10/13 09:00:55;;;;;;;11.90;2.58;;;21.90;49.80;;;;;;6214580;28;20346;-65
2023/10/13 09:03:53;;;;;;;15.85;3.50;;;22.00;49.40;;;;;;6213109;28;20108;-66
2023/10/13 09:10:11;;;;;;;17.33;3.20;;;22.10;49.10;;;;;;6214256;28;20143;-66
2023/10/13 09:13:20;;;;;;;21.27;4.35;;;22.20;48.90;;;;;;6215281;28;20033;-67
2023/10/13 09:19:47;;;;;;;9.88;3.20;;;22.40;48.60;;;;;;6206617;28;20038;-66
2023/10/13 09:26:12;;;;;;;7.03;3.00;;;22.50;47.90;;;;;;6213726;28;20037;-66
2023/10/13 09:29:18;;;;;;;13.68;3.33;;;22.60;47.50;;;;;;6212670;28;20113;-66
2023/10/13 09:32:21;;;;;;;14.13;3.10;;;22.60;47.20;;;;;;6196709;28;20033;-66
2023/10/13 09:35:25;;;;;;;22.67;3.55;;;22.70;47.10;;;;;;6216406;28;20562;-66
2023/10/13 09:38:28;;;;;;;11.93;3.63;;;22.70;46.70;;;;;;6217680;28;20512;-65
2023/10/13 09:41:32;;;;;;;14.63;2.90;;;22.80;46.50;;;;;;6217563;28;20105;-66
2023/10/13 09:44:34;;;;;;;9.18;2.80;;;22.80;46.20;;;;;;6216547;28;20172;-66
2023/10/13 09:47:40;;;;;;;12.60;2.60;;;22.80;46.00;;;;;;6213834;28;20033;-67
2023/10/13 09:50:44;;;;;;;5.88;2.67;;;22.90;45.80;;;;;;6214097;28;20030;-64
2023/10/13 09:53:58;;;;;;;11.80;2.75;;;22.90;45.60;;;;;;6207868;28;20490;-64
2023/10/13 09:57:16;;;;;;;7.93;2.60;;;23.00;45.20;;;;;;6188867;28;20026;-66
2023/10/13 10:00:44;;;;;;;5.30;2.38;;;23.00;44.90;;;;;;6187378;28;20775;-66
2023/10/13 10:04:07;;;;;;;12.13;2.65;;;23.10;44.50;;;;;;6189344;28;20440;-65
2023/10/13 10:07:08;;;;;;;10.35;2.35;;;23.10;43.90;;;;;;6191894;28;20042;-66
2023/10/13 10:10:11;;;;;;;9.32;2.53;;;23.30;43.40;;;;;;6193717;28;20159;-66
2023/10/13 10:13:34;;;;;;;9.75;2.55;;;23.50;42.60;;;;;;6217640;28;20386;-65
2023/10/13 10:17:00;;;;;;;4.50;2.55;;;23.70;41.90;;;;;;6218940;28;20102;-65
2023/10/13 10:20:06;;;;;;;6.45;2.25;;;24.00;41.20;;;;;;6218503;28;20060;-68
2023/10/13 10:23:17;;;;;;;5.28;2.17;;;24.30;40.70;;;;;;6218581;28;20054;-66
2023/10/13 10:26:21;;;;;;;4.97;2.38;;;24.60;39.80;;;;;;6218295;28;20038;-66
2023/10/13 10:29:22;;;;;;;6.20;2.30;;;24.80;39.50;;;;;;6217328;28;20037;-67
2023/10/13 10:32:40;;;;;;;8.15;2.97;;;25.10;39.40;;;;;;6216526;28;20110;-65
2023/10/13 10:35:46;;;;;;;11.43;2.85;;;25.30;39.10;;;;;;6218234;28;20030;-66
2023/10/13 10:38:54;;;;;;;14.93;2.80;;;25.50;38.80;;;;;;6217896;28;20033;-68
2023/10/13 10:42:01;;;;;;;9.38;3.00;;;25.70;38.70;;;;;;6218021;28;20661;-67
2023/10/13 10:45:08;;;;;;;11.73;3.17;;;25.90;38.50;;;;;;6216347;28;20533;-65
2023/10/13 10:48:18;;;;;;;9.02;2.88;;;26.10;38.40;;;;;;6218282;28;20753;-67
2023/10/13 10:51:21;;;;;;;11.93;3.08;;;26.20;38.60;;;;;;6218148;28;20148;-66
2023/10/13 10:54:22;;;;;;;9.32;2.60;;;26.40;38.60;;;;;;6218141;28;20431;-66
2023/10/13 10:57:28;;;;;;;15.07;3.20;;;26.70;38.60;;;;;;6216535;28;20038;-67
2023/10/13 11:00:45;;;;;;;11.63;4.22;;;27.00;38.40;;;;;;6216245;28;20163;-67
2023/10/13 11:03:57;;;;;;;8.15;3.20;;;27.30;38.10;;;;;;6217989;28;20057;-67
2023/10/13 11:06:57;;;;;;;8.75;3.33;;;27.60;38.00;;;;;;6216054;28;20174;-66
2023/10/13 11:10:12;;;;;;;8.02;3.05;;;28.10;37.70;;;;;;6201248;28;20447;-66
2023/10/13 11:13:21;;;;;;;14.88;4.30;;;28.50;37.30;;;;;;6193430;28;20049;-66
2023/10/13 11:16:34;;;;;;;12.35;3.72;;;28.90;37.10;;;;;;6191938;28;20462;-67
2023/10/13 11:19:40;;;;;;;7.85;3.60;;;29.30;37.20;;;;;;6192832;28;20031;-65
2023/10/13 11:22:46;;;;;;;6.85;3.72;;;29.70;37.10;;;;;;6192219;28;20037;-67
2023/10/13 11:25:59;;;;;;;7.43;3.58;;;30.20;36.70;;;;;;6193313;28;20056;-67
2023/10/13 11:29:04;;;;;;;19.13;3.85;;;30.80;36.20;;;;;;6192671;28;20505;-65
2023/10/13 11:32:05;;;;;;;10.18;3.50;;;31.30;35.40;;;;;;6193257;28;20034;-67
2023/10/13 11:35:20;;;;;;;15.52;4.32;;;31.80;34.60;;;;;;6193129;28;20026;-67
2023/10/13 11:41:38;;;;;;;14.18;3.47;;;33.00;33.20;;;;;;6191133;28;20042;-67
2023/10/13 11:44:43;;;;;;;17.17;4.05;;;33.40;32.30;;;;;;6191897;28;20137;-69
2023/10/13 11:47:59;;;;;;;8.70;3.28;;;33.80;31.60;;;;;;6191214;28;20022;-66
2023/10/13 11:51:06;;;;;;;5.75;3.42;;;34.20;30.70;;;;;;6215725;28;20041;-67
2023/10/13 11:54:06;;;;;;;7.18;2.85;;;34.40;30.40;;;;;;6215764;28;20025;-68
2023/10/13 11:57:08;;;;;;;11.75;3.30;;;34.60;30.00;;;;;;6215365;28;20447;-67
2023/10/13 12:07:14;;;;;;;16.80;3.35;;;35.50;29.10;;;;;;6186625;28;20073;-67
2023/10/13 12:10:16;;;;;;;9.40;3.75;;;35.70;28.70;;;;;;6188327;28;20049;-67
2023/10/13 12:13:17;;;;;;;8.93;3.55;;;35.90;28.50;;;;;;6188480;28;20085;-64
2023/10/13 12:16:19;;;;;;;4.93;3.30;;;36.10;28.60;;;;;;6188495;28;20026;-66
2023/10/13 12:19:23;;;;;;;4.32;2.85;;;36.10;27.90;;;;;;6187876;28;20070;-66
2023/10/13 12:22:42;;;;;;;9.82;3.33;;;36.30;27.80;;;;;;6188200;28;20026;-66
2023/10/13 12:26:00;;;;;;;9.10;2.90;;;36.40;27.60;;;;;;6187979;28;20065;-66
2023/10/13 12:29:06;;;;;;;10.57;3.22;;;36.50;27.40;;;;;;6187123;28;20165;-67
2023/10/13 12:32:08;;;;;;;8.07;3.40;;;36.50;27.30;;;;;;6187854;28;20038;-67
2023/10/13 12:38:36;;;;;;;8.98;3.05;;;35.40;28.00;;;;;;6187319;28;20159;-67
2023/10/13 12:54:36;;;;;;;12.25;3.30;;;32.50;29.90;;;;;;6214010;28;20674;-66
2023/10/13 12:57:42;;;;;;;7.25;3.03;;;32.10;30.10;;;;;;6215207;28;20042;-66
2023/10/13 13:00:48;;;;;;;9.27;2.30;;;31.80;30.50;;;;;;6211431;28;20030;-67
2023/10/13 13:03:50;;;;;;;4.32;2.42;;;31.60;30.60;;;;;;6190332;28;20479;-66
2023/10/13 13:06:51;;;;;;;4.40;2.50;;;31.30;30.60;;;;;;6190859;28;20455;-65
2023/10/13 13:09:55;;;;;;;10.25;2.42;;;31.10;30.80;;;;;;6190062;28;20046;-65
2023/10/13 13:12:57;;;;;;;5.63;2.47;;;30.90;30.60;;;;;;6212034;28;20490;-67
2023/10/13 13:15:58;;;;;;;4.75;1.65;;;30.80;29.60;;;;;;6214873;28;20022;-66
2023/10/13 13:19:03;;;;;;;2.33;0.95;;;30.70;25.40;;;;;;6214873;28;20484;-65
2023/10/13 13:22:04;;;;;;;11.68;1.85;;;30.80;22.90;;;;;;6214703;28;20347;-66
2023/10/13 13:25:10;;;;;;;5.93;1.42;;;31.00;21.70;;;;;;6215007;28;20109;-66
2023/10/13 13:28:11;;;;;;;3.97;1.35;;;31.10;21.20;;;;;;6214413;28;20022;-69
2023/10/13 13:31:12;;;;;;;6.80;2.05;;;31.20;21.10;;;;;;6214069;28;20479;-66
2023/10/13 13:34:13;;;;;;;5.85;1.30;;;31.30;19.80;;;;;;6214339;28;20112;-65
2023/10/13 13:37:14;;;;;;;7.18;1.23;;;31.40;19.70;;;;;;6214727;28;20105;-66
2023/10/13 13:40:15;;;;;;;3.30;1.27;;;31.50;19.10;;;;;;6215071;28;20026;-66
2023/10/13 13:43:31;;;;;;;7.53;1.27;;;31.60;19.00;;;;;;6219274;28;20034;-66
2023/10/13 13:46:40;;;;;;;2.80;1.25;;;31.60;18.90;;;;;;6212125;28;20061;-67
2023/10/13 13:49:50;;;;;;;4.82;1.50;;;31.70;18.60;;;;;;6206070;28;20046;-68
2023/10/13 13:52:55;;;;;;;3.78;1.15;;;31.80;18.30;;;;;;6218069;28;20061;-67
2023/10/13 13:55:59;;;;;;;5.03;1.60;;;31.80;18.50;;;;;;6219807;28;20140;-67
2023/10/13 13:59:08;;;;;;;4.60;1.40;;;31.80;18.90;;;;;;6220047;28;20091;-67
2023/10/13 14:02:21;;;;;;;6.85;1.25;;;31.80;18.50;;;;;;6220202;28;20026;-67
2023/10/13 14:05:23;;;;;;;3.22;1.48;;;31.80;18.30;;;;;;6220041;28;20040;-65
2023/10/13 14:08:25;;;;;;;2.00;1.05;;;31.80;18.60;;;;;;6219180;28;20036;-64
2023/10/13 14:14:47;;;;;;;2.38;1.05;;;31.80;18.90;;;;;;6219346;28;20112;-68
2023/10/13 14:17:49;;;;;;;4.47;1.60;;;31.80;19.10;;;;;;6217446;28;20448;-66
2023/10/13 14:20:50;;;;;;;2.60;1.25;;;31.70;18.90;;;;;;6218492;28;20084;-66
2023/10/13 14:23:54;;;;;;;3.47;1.40;;;31.70;19.20;;;;;;6218520;28;20034;-67
2023/10/13 14:26:56;;;;;;;10.93;1.92;;;31.70;19.40;;;;;;6218871;28;20119;-64
2023/10/13 14:29:57;;;;;;;6.68;1.60;;;31.60;20.00;;;;;;6216410;28;20030;-68
2023/10/13 14:32:58;;;;;;;1.48;1.10;;;31.60;19.40;;;;;;6218091;28;20406;-66
2023/10/13 14:36:04;;;;;;;4.22;1.40;;;31.60;19.40;;;;;;6218029;28;20351;-66
2023/10/13 14:39:09;;;;;;;2.60;1.40;;;31.60;19.50;;;;;;6218106;28;20124;-71
2023/10/13 14:42:09;;;;;;;3.05;1.45;;;31.50;19.50;;;;;;6216754;28;20113;-67
2023/10/13 14:45:13;;;;;;;3.88;1.45;;;31.50;19.70;;;;;;6218032;28;20549;-65
2023/10/13 14:48:14;;;;;;;5.03;1.38;;;31.40;19.70;;;;;;6217951;28;20033;-64
2023/10/13 14:51:17;;;;;;;2.50;1.23;;;31.40;19.70;;;;;;6217303;28;20034;-65
2023/10/13 14:54:25;;;;;;;8.07;1.70;;;31.40;19.90;;;;;;6218151;28;20037;-66
2023/10/13 14:57:26;;;;;;;4.15;1.67;;;31.40;20.10;;;;;;6218045;28;20034;-65
2023/10/13 15:00:27;;;;;;;8.05;2.83;;;31.30;20.10;;;;;;6216053;28;20045;-66
2023/10/13 15:03:30;;;;;;;5.55;1.73;;;31.30;20.20;;;;;;6218212;28;20030;-67
2023/10/13 15:06:31;;;;;;;5.45;2.00;;;31.20;20.20;;;;;;6216280;28;20038;-67
2023/10/13 15:09:31;;;;;;;4.55;1.33;;;31.20;20.40;;;;;;6216464;28;20037;-66
2023/10/13 15:12:32;;;;;;;2.30;1.20;;;31.30;20.50;;;;;;6217675;28;20478;-66
2023/10/13 15:15:35;;;;;;;10.52;2.10;;;31.10;20.50;;;;;;6218183;28;20112;-66
2023/10/13 15:18:37;;;;;;;5.88;2.42;;;31.10;20.70;;;;;;6216239;28;20103;-65
2023/10/13 15:21:40;;;;;;;2.60;1.60;;;31.10;20.70;;;;;;6216408;28;20045;-66
2023/10/13 15:24:45;;;;;;;5.07;1.80;;;31.00;20.80;;;;;;6217899;28;20106;-65
2023/10/13 15:27:55;;;;;;;5.68;1.55;;;31.00;21.00;;;;;;6217615;28;20037;-66
2023/10/13 15:31:10;;;;;;;4.80;1.60;;;30.90;21.00;;;;;;6217230;28;20042;-66
2023/10/13 15:34:15;;;;;;;4.60;2.00;;;30.90;21.20;;;;;;6217091;28;20026;-67
2023/10/13 15:37:16;;;;;;;4.82;1.80;;;30.90;21.40;;;;;;6217274;28;20030;-64
2023/10/13 15:40:16;;;;;;;7.75;1.88;;;30.80;21.50;;;;;;6217344;28;20056;-67
2023/10/13 15:43:18;;;;;;;5.22;1.65;;;30.80;21.60;;;;;;6217091;28;20112;-65
2023/10/13 15:46:22;;;;;;;4.03;1.90;;;30.80;21.80;;;;;;6217161;28;20029;-65
2023/10/13 15:49:24;;;;;;;6.88;2.72;;;30.70;21.90;;;;;;6213654;28;20022;-67
2023/10/13 15:52:25;;;;;;;7.13;2.33;;;30.70;22.10;;;;;;6190617;28;20042;-66
2023/10/13 15:55:26;;;;;;;4.43;1.50;;;30.60;22.20;;;;;;6191999;28;20603;-65
2023/10/13 15:58:28;;;;;;;5.75;1.90;;;30.50;22.30;;;;;;6191763;28;20042;-68
2023/10/13 16:01:33;;;;;;;6.55;2.00;;;30.50;22.50;;;;;;6190216;28;20030;-66
2023/10/13 16:04:34;;;;;;;9.77;2.42;;;30.40;22.60;;;;;;6191131;28;20022;-67
2023/10/13 16:07:35;;;;;;;3.42;2.33;;;30.40;22.80;;;;;;6191967;28;20399;-66
2023/10/13 16:10:36;;;;;;;8.63;2.38;;;30.30;23.00;;;;;;6191406;28;20049;-67
2023/10/13 16:13:37;;;;;;;5.10;2.30;;;30.30;23.10;;;;;;6191917;28;20536;-65
2023/10/13 16:16:37;;;;;;;5.18;2.25;;;30.20;23.30;;;;;;6189985;28;20035;-67
2023/10/13 16:19:39;;;;;;;6.95;2.35;;;30.20;23.50;;;;;;6190208;28;20129;-65
2023/10/13 16:22:43;;;;;;;3.80;1.95;;;30.10;23.60;;;;;;6192047;28;20070;-67
2023/10/13 16:25:44;;;;;;;8.48;2.42;;;30.10;23.80;;;;;;6190580;28;20042;-66
2023/10/13 16:28:45;;;;;;;8.63;2.25;;;30.00;23.90;;;;;;6189689;28;20040;-67
2023/10/13 16:31:46;;;;;;;7.05;2.05;;;29.90;24.10;;;;;;6191699;28;20023;-67
2023/10/13 16:34:48;;;;;;;4.03;1.70;;;29.90;24.30;;;;;;6193317;28;20034;-66
2023/10/13 16:37:52;;;;;;;5.68;1.77;;;29.80;24.30;;;;;;6216020;28;20415;-67
2023/10/13 16:40:53;;;;;;;5.55;2.10;;;29.80;24.90;;;;;;6215640;28;20061;-67
2023/10/13 16:43:54;;;;;;;9.63;2.33;;;29.60;24.50;;;;;;6213791;28;20048;-65
2023/10/13 16:46:59;;;;;;;6.72;2.65;;;29.80;24.80;;;;;;6215614;28;20450;-65
2023/10/13 16:50:02;;;;;;;7.30;2.55;;;29.70;24.90;;;;;;6213673;28;20030;-67
2023/10/13 16:53:06;;;;;;;4.65;2.20;;;29.70;25.10;;;;;;6215224;28;20037;-65
2023/10/13 16:56:08;;;;;;;6.93;2.08;;;29.70;25.20;;;;;;6213464;28;20069;-68
2023/10/13 16:59:09;;;;;;;6.63;2.08;;;29.70;25.30;;;;;;6215085;28;20073;-66
2023/10/13 17:02:11;;;;;;;7.05;2.50;;;29.60;25.40;;;;;;6191732;28;20113;-66
2023/10/13 17:05:13;;;;;;;4.45;2.25;;;29.50;25.40;;;;;;6188586;28;20374;-65
2023/10/13 17:08:14;;;;;;;2.92;2.03;;;29.40;25.60;;;;;;6190010;28;20449;-65
2023/10/13 17:11:17;;;;;;;7.65;2.53;;;29.40;25.80;;;;;;6190233;28;20026;-65
2023/10/13 17:14:19;;;;;;;6.15;2.08;;;29.30;25.90;;;;;;6190586;28;20030;-65
2023/10/13 17:17:21;;;;;;;4.82;2.60;;;29.20;26.00;;;;;;6172740;28;20038;-65
2023/10/13 17:20:22;;;;;;;8.65;2.85;;;29.10;26.40;;;;;;6190411;28;20046;-64
2023/10/13 17:23:23;;;;;;;10.75;2.25;;;29.00;26.90;;;;;;6189171;28;20105;-64
2023/10/13 17:26:26;;;;;;;5.25;2.15;;;28.90;27.40;;;;;;6191012;28;20062;-66
2023/10/13 17:29:28;;;;;;;7.75;2.92;;;28.80;28.10;;;;;;6190162;28;20128;-67
2023/10/13 17:32:29;;;;;;;9.20;2.97;;;28.60;28.70;;;;;;6203854;28;20446;-66
2023/10/13 17:35:31;;;;;;;7.43;2.92;;;28.40;29.50;;;;;;6212929;28;20056;-66
2023/10/13 17:38:32;;;;;;;17.65;4.88;;;28.20;30.00;;;;;;6214284;28;20052;-66
2023/10/13 17:41:33;;;;;;;8.63;2.78;;;28.10;30.50;;;;;;6214665;28;20069;-66
2023/10/13 17:44:34;;;;;;;9.73;4.40;;;28.00;31.20;;;;;;6212902;28;20056;-65
2023/10/13 17:47:36;;;;;;;9.02;3.40;;;27.80;31.60;;;;;;6214473;28;20557;-67
2023/10/13 17:50:37;;;;;;;8.75;2.63;;;28.20;31.90;;;;;;6213920;28;20044;-66
2023/10/13 17:53:38;;;;;;;10.57;3.50;;;27.60;31.70;;;;;;6214168;28;20034;-64
2023/10/13 17:56:40;;;;;;;17.38;2.97;;;27.50;32.00;;;;;;6212981;28;20073;-66
2023/10/13 17:59:44;;;;;;;12.50;2.92;;;27.50;32.20;;;;;;6214028;28;20107;-66
2023/10/13 18:02:45;;;;;;;15.13;3.22;;;27.40;32.30;;;;;;6214250;28;20061;-67
2023/10/13 18:05:46;;;;;;;15.05;3.85;;;27.30;32.40;;;;;;6214521;28;20500;-66
2023/10/13 18:08:50;;;;;;;12.35;3.63;;;27.30;32.40;;;;;;6214406;28;20069;-67
2023/10/13 18:11:50;;;;;;;10.70;3.30;;;27.20;32.90;;;;;;6214519;28;20479;-66
2023/10/13 18:14:56;;;;;;;10.77;3.53;;;27.20;33.00;;;;;;6214700;28;20048;-66
2023/10/13 18:17:57;;;;;;;4.97;2.65;;;27.20;33.40;;;;;;6214501;28;20038;-65
2023/10/13 18:21:02;;;;;;;8.73;3.83;;;27.10;33.30;;;;;;6212484;28;20144;-66
2023/10/13 18:24:03;;;;;;;7.10;2.80;;;27.10;33.30;;;;;;6213187;28;20092;-65
2023/10/13 18:27:05;;;;;;;8.93;4.28;;;27.10;33.40;;;;;;6215722;28;20049;-63
2023/10/13 18:30:09;;;;;;;10.98;4.50;;;27.00;33.40;;;;;;6218793;28;20050;-65
2023/10/13 18:33:11;;;;;;;10.25;4.78;;;26.90;33.60;;;;;;6219588;28;20034;-66
2023/10/13 18:36:24;;;;;;;8.85;3.83;;;26.80;34.00;;;;;;6218315;28;20048;-65
2023/10/13 18:39:33;;;;;;;8.98;3.45;;;26.70;34.90;;;;;;6220484;28;20459;-65